Aérodrome :
LOGIN :

S'inscrire | Disclaimer

   EN    FR    IT 

 










Légende :    VFR   VFR Marginal   IFR   IFR Intensif   IFR Très Intensif
Visi : 
Plafond : 
>= 8 km
>= 3000ft
5 à 8 km
1000 à 3000 ft
1500m à 5 km
500 à 1000 ft
800 à 1500m
200 à 500 ft
< 800m
< 200 ft
Symboles :   Orages  Brouillard  Fortes neiges  Fortes précipitations  Vent > 20 kt
SIGMETs :   Divers  Orages  Givrage  Turbulence  Onde Orograph.  Cendres Volcan.







- Altitude de l'aérodrome : 294 ft
- Code IATA : NAP


LIRN - Naples Capodichino

DERNIER METAR :
  • 262320Z 36001KT CAVOK 22/19 Q1018 NOSIG

METARs EXPIRÉS :
  • 262250Z 35004KT 9999 FEW030 22/19 Q1018 NOSIG
  • 262220Z 03004KT 9999 FEW030 21/18 Q1018 NOSIG
  • 262150Z 03003KT 350V060 9999 FEW030 22/18 Q1018 NOSIG
  • 262120Z 05002KT 9999 FEW030 23/18 Q1018 NOSIG
  • 262050Z VRB02KT 9999 FEW030 22/20 Q1019 NOSIG

TAF TAF LIRN
Valide du 27 à 00h jusqu'au 28 à 00h UTC


262300Z 2700/2724 VRB04KT 9999 SCT030
TEMPO 2700/2706 3000 BR
BECMG 2710/2712 22010KT
BECMG 2716/2718 VRB05KT
Pas de NOTAMs connus pour ce terrain.
1 SIGMET publié pour la FIR Roma (LIRR) :
 
Turbulence forte
LIRR SIGMET 5 VALID 262000/270000 LIIB
LIRR ROMA FIR SEV TURB FCST W OF LINE N3913 E01716 - N3601 E01550 FL290/410 MOV NE NC=



MET'MAP, la Météo Aéronautique d'un coup d'oeil ! - Copyright ORBIFLY Décembre 2007 - Disclaimer

ORBIFLY MET'MAP TEAM :

Programmation & Développement : Alexandra Zaïnal
Conception & Développement : Baudouin d'Aumeries
Co-Programmation & Développement : Marc-Olivier Méhu
Soutien technique & logistique : Manuel Goepfert

Contact : metmap@orbifly.com




SOURCES & CREDITS :

   NOAA